sensor_id;sensor_type;location;lat;lon;timestamp;temperature;humidity
20070;DHT22;10195;50.868;4.382;2022-11-15T00:01:43;12.90;99.90
20070;DHT22;10195;50.868;4.382;2022-11-15T00:04:09;12.90;99.90
20070;DHT22;10195;50.868;4.382;2022-11-15T00:06:35;12.80;99.90
20070;DHT22;10195;50.868;4.382;2022-11-15T00:09:01;12.90;99.90
20070;DHT22;10195;50.868;4.382;2022-11-15T00:11:27;12.90;99.90
20070;DHT22;10195;50.868;4.382;2022-11-15T00:13:57;13.00;99.90
20070;DHT22;10195;50.868;4.382;2022-11-15T00:16:24;13.00;99.90
20070;DHT22;10195;50.868;4.382;2022-11-15T00:18:49;13.00;99.90
20070;DHT22;10195;50.868;4.382;2022-11-15T00:21:16;13.10;99.90
20070;DHT22;10195;50.868;4.382;2022-11-15T00:23:42;12.90;99.90
20070;DHT22;10195;50.868;4.382;2022-11-15T00:26:11;13.00;99.90
20070;DHT22;10195;50.868;4.382;2022-11-15T00:28:37;13.00;99.90
20070;DHT22;10195;50.868;4.382;2022-11-15T00:31:05;13.00;99.90
20070;DHT22;10195;50.868;4.382;2022-11-15T00:33:31;13.00;99.90
20070;DHT22;10195;50.868;4.382;2022-11-15T00:36:04;13.10;99.90
20070;DHT22;10195;50.868;4.382;2022-11-15T00:38:34;13.10;99.90
20070;DHT22;10195;50.868;4.382;2022-11-15T00:41:00;13.10;99.90
20070;DHT22;10195;50.868;4.382;2022-11-15T00:43:26;13.20;99.90
20070;DHT22;10195;50.868;4.382;2022-11-15T00:45:52;13.10;99.90
20070;DHT22;10195;50.868;4.382;2022-11-15T00:48:18;13.20;99.90
20070;DHT22;10195;50.868;4.382;2022-11-15T00:50:43;13.20;99.90
20070;DHT22;10195;50.868;4.382;2022-11-15T00:53:09;13.10;99.90
20070;DHT22;10195;50.868;4.382;2022-11-15T00:55:35;13.10;99.90
20070;DHT22;10195;50.868;4.382;2022-11-15T00:58:00;13.10;99.90
20070;DHT22;10195;50.868;4.382;2022-11-15T01:00:26;13.20;99.90
20070;DHT22;10195;50.868;4.382;2022-11-15T01:02:52;13.20;99.90
20070;DHT22;10195;50.868;4.382;2022-11-15T01:05:17;13.30;99.90
20070;DHT22;10195;50.868;4.382;2022-11-15T01:07:43;13.20;99.90
20070;DHT22;10195;50.868;4.382;2022-11-15T01:10:09;13.10;99.90
20070;DHT22;10195;50.868;4.382;2022-11-15T01:12:34;13.20;99.90
20070;DHT22;10195;50.868;4.382;2022-11-15T01:15:00;13.20;99.90
20070;DHT22;10195;50.868;4.382;2022-11-15T01:17:26;13.30;99.90
20070;DHT22;10195;50.868;4.382;2022-11-15T01:19:51;13.30;99.90
20070;DHT22;10195;50.868;4.382;2022-11-15T01:22:17;13.40;99.90
20070;DHT22;10195;50.868;4.382;2022-11-15T01:24:43;13.30;99.90
20070;DHT22;10195;50.868;4.382;2022-11-15T01:27:09;13.20;99.90
20070;DHT22;10195;50.868;4.382;2022-11-15T01:29:34;13.20;99.90
20070;DHT22;10195;50.868;4.382;2022-11-15T01:32:00;13.20;99.90
20070;DHT22;10195;50.868;4.382;2022-11-15T01:34:26;13.20;99.90
20070;DHT22;10195;50.868;4.382;2022-11-15T01:36:51;13.10;99.90
20070;DHT22;10195;50.868;4.382;2022-11-15T01:39:17;13.20;99.90
20070;DHT22;10195;50.868;4.382;2022-11-15T01:41:43;13.20;99.90
20070;DHT22;10195;50.868;4.382;2022-11-15T01:46:57;13.20;99.90
20070;DHT22;10195;50.868;4.382;2022-11-15T01:49:27;13.20;99.90
20070;DHT22;10195;50.868;4.382;2022-11-15T01:51:54;13.10;99.90
20070;DHT22;10195;50.868;4.382;2022-11-15T01:54:21;13.10;99.90
20070;DHT22;10195;50.868;4.382;2022-11-15T01:56:54;13.10;99.90
20070;DHT22;10195;50.868;4.382;2022-11-15T01:59:21;13.00;99.90
20070;DHT22;10195;50.868;4.382;2022-11-15T02:01:48;13.00;99.90
20070;DHT22;10195;50.868;4.382;2022-11-15T02:04:26;13.10;99.90
20070;DHT22;10195;50.868;4.382;2022-11-15T02:06:53;13.10;99.90
20070;DHT22;10195;50.868;4.382;2022-11-15T02:09:19;13.10;99.90
20070;DHT22;10195;50.868;4.382;2022-11-15T02:11:46;13.10;99.90
20070;DHT22;10195;50.868;4.382;2022-11-15T02:14:14;13.10;99.90
20070;DHT22;10195;50.868;4.382;2022-11-15T02:25:40;13.10;99.90
20070;DHT22;10195;50.868;4.382;2022-11-15T02:31:35;13.10;99.90
20070;DHT22;10195;50.868;4.382;2022-11-15T02:37:21;13.00;99.90
20070;DHT22;10195;50.868;4.382;2022-11-15T02:42:36;12.90;99.90
20070;DHT22;10195;50.868;4.382;2022-11-15T02:45:30;12.90;99.90
20070;DHT22;10195;50.868;4.382;2022-11-15T02:47:59;12.90;99.90
20070;DHT22;10195;50.868;4.382;2022-11-15T02:50:29;12.90;99.90
20070;DHT22;10195;50.868;4.382;2022-11-15T02:52:55;13.00;99.90
20070;DHT22;10195;50.868;4.382;2022-11-15T02:55:38;13.00;99.90
20070;DHT22;10195;50.868;4.382;2022-11-15T02:58:34;13.00;99.90
20070;DHT22;10195;50.868;4.382;2022-11-15T03:06:45;12.90;99.90
20070;DHT22;10195;50.868;4.382;2022-11-15T03:11:55;12.90;99.90
20070;DHT22;10195;50.868;4.382;2022-11-15T03:14:28;12.90;99.90
20070;DHT22;10195;50.868;4.382;2022-11-15T03:19:50;12.90;99.90
20070;DHT22;10195;50.868;4.382;2022-11-15T03:22:18;12.80;99.90
20070;DHT22;10195;50.868;4.382;2022-11-15T03:24:48;12.80;99.90
20070;DHT22;10195;50.868;4.382;2022-11-15T03:27:18;12.70;99.90
20070;DHT22;10195;50.868;4.382;2022-11-15T03:29:53;12.80;99.90
20070;DHT22;10195;50.868;4.382;2022-11-15T03:32:24;12.70;99.90
20070;DHT22;10195;50.868;4.382;2022-11-15T03:35:01;12.70;99.90
20070;DHT22;10195;50.868;4.382;2022-11-15T03:37:35;12.80;99.90
20070;DHT22;10195;50.868;4.382;2022-11-15T03:40:03;12.80;99.90
20070;DHT22;10195;50.868;4.382;2022-11-15T03:42:48;12.80;99.90
20070;DHT22;10195;50.868;4.382;2022-11-15T03:45:23;12.60;99.90
20070;DHT22;10195;50.868;4.382;2022-11-15T03:48:05;12.70;99.90
20070;DHT22;10195;50.868;4.382;2022-11-15T03:50:33;12.70;99.90
20070;DHT22;10195;50.868;4.382;2022-11-15T03:53:00;12.60;99.90
20070;DHT22;10195;50.868;4.382;2022-11-15T03:55:26;12.60;99.90
20070;DHT22;10195;50.868;4.382;2022-11-15T03:57:56;12.70;99.90
20070;DHT22;10195;50.868;4.382;2022-11-15T04:00:23;12.70;99.90
20070;DHT22;10195;50.868;4.382;2022-11-15T04:02:48;12.60;99.90
20070;DHT22;10195;50.868;4.382;2022-11-15T04:05:14;12.50;99.90
20070;DHT22;10195;50.868;4.382;2022-11-15T04:07:39;12.50;99.90
20070;DHT22;10195;50.868;4.382;2022-11-15T04:10:06;12.50;99.90
20070;DHT22;10195;50.868;4.382;2022-11-15T04:12:36;12.60;99.90
20070;DHT22;10195;50.868;4.382;2022-11-15T04:15:05;12.60;99.90
20070;DHT22;10195;50.868;4.382;2022-11-15T04:17:41;12.50;99.90
20070;DHT22;10195;50.868;4.382;2022-11-15T04:20:16;12.50;99.90
20070;DHT22;10195;50.868;4.382;2022-11-15T04:23:02;12.50;99.90
20070;DHT22;10195;50.868;4.382;2022-11-15T04:25:49;12.50;99.90
20070;DHT22;10195;50.868;4.382;2022-11-15T04:28:16;12.60;99.90
20070;DHT22;10195;50.868;4.382;2022-11-15T04:30:42;12.70;99.90
20070;DHT22;10195;50.868;4.382;2022-11-15T04:33:07;12.60;99.90
20070;DHT22;10195;50.868;4.382;2022-11-15T04:35:33;12.60;99.90
20070;DHT22;10195;50.868;4.382;2022-11-15T04:37:59;12.60;99.90
20070;DHT22;10195;50.868;4.382;2022-11-15T04:40:25;12.50;99.90
20070;DHT22;10195;50.868;4.382;2022-11-15T04:42:51;12.30;99.90
20070;DHT22;10195;50.868;4.382;2022-11-15T04:45:16;12.30;99.90
20070;DHT22;10195;50.868;4.382;2022-11-15T04:47:45;12.30;99.90
20070;DHT22;10195;50.868;4.382;2022-11-15T04:50:12;12.30;99.90
20070;DHT22;10195;50.868;4.382;2022-11-15T04:52:40;12.30;99.90
20070;DHT22;10195;50.868;4.382;2022-11-15T04:55:08;12.30;99.90
20070;DHT22;10195;50.868;4.382;2022-11-15T04:57:33;12.30;99.90
20070;DHT22;10195;50.868;4.382;2022-11-15T04:59:59;12.20;99.90
20070;DHT22;10195;50.868;4.382;2022-11-15T05:02:25;12.00;99.90
20070;DHT22;10195;50.868;4.382;2022-11-15T05:05:10;12.10;99.90
20070;DHT22;10195;50.868;4.382;2022-11-15T05:07:36;12.10;99.90
20070;DHT22;10195;50.868;4.382;2022-11-15T05:10:01;12.00;99.90
20070;DHT22;10195;50.868;4.382;2022-11-15T05:12:27;12.00;99.90
20070;DHT22;10195;50.868;4.382;2022-11-15T05:14:52;12.00;99.90
20070;DHT22;10195;50.868;4.382;2022-11-15T05:17:18;12.00;99.90
20070;DHT22;10195;50.868;4.382;2022-11-15T05:19:44;11.90;99.90
20070;DHT22;10195;50.868;4.382;2022-11-15T05:22:10;11.80;99.90
20070;DHT22;10195;50.868;4.382;2022-11-15T05:24:35;11.80;99.90
20070;DHT22;10195;50.868;4.382;2022-11-15T05:27:01;11.70;99.90
20070;DHT22;10195;50.868;4.382;2022-11-15T05:29:26;11.70;99.90
20070;DHT22;10195;50.868;4.382;2022-11-15T05:31:52;11.60;99.90
20070;DHT22;10195;50.868;4.382;2022-11-15T05:34:18;11.40;99.90
20070;DHT22;10195;50.868;4.382;2022-11-15T05:36:44;11.40;99.90
20070;DHT22;10195;50.868;4.382;2022-11-15T05:39:11;11.40;99.90
20070;DHT22;10195;50.868;4.382;2022-11-15T05:41:41;11.40;99.90
20070;DHT22;10195;50.868;4.382;2022-11-15T05:44:09;11.50;99.90
20070;DHT22;10195;50.868;4.382;2022-11-15T05:46:36;11.40;99.90
20070;DHT22;10195;50.868;4.382;2022-11-15T05:49:05;11.30;99.90
20070;DHT22;10195;50.868;4.382;2022-11-15T05:51:32;11.30;99.90
20070;DHT22;10195;50.868;4.382;2022-11-15T05:53:58;11.30;99.90
20070;DHT22;10195;50.868;4.382;2022-11-15T05:56:25;11.30;99.90
20070;DHT22;10195;50.868;4.382;2022-11-15T05:58:53;11.30;99.90
20070;DHT22;10195;50.868;4.382;2022-11-15T06:01:20;11.20;99.90
20070;DHT22;10195;50.868;4.382;2022-11-15T06:03:46;11.30;99.90
20070;DHT22;10195;50.868;4.382;2022-11-15T06:06:11;11.30;99.90
20070;DHT22;10195;50.868;4.382;2022-11-15T06:08:37;11.30;99.90
20070;DHT22;10195;50.868;4.382;2022-11-15T06:11:06;11.30;99.90
20070;DHT22;10195;50.868;4.382;2022-11-15T06:13:32;11.10;99.90
20070;DHT22;10195;50.868;4.382;2022-11-15T06:15:58;11.00;99.90
20070;DHT22;10195;50.868;4.382;2022-11-15T06:18:24;11.00;99.90
20070;DHT22;10195;50.868;4.382;2022-11-15T06:20:49;11.00;99.90
20070;DHT22;10195;50.868;4.382;2022-11-15T06:23:15;11.00;99.90
20070;DHT22;10195;50.868;4.382;2022-11-15T06:25:41;11.00;99.90
20070;DHT22;10195;50.868;4.382;2022-11-15T06:28:06;10.90;99.90
20070;DHT22;10195;50.868;4.382;2022-11-15T06:30:32;10.70;99.90
20070;DHT22;10195;50.868;4.382;2022-11-15T06:32:59;10.70;99.90
20070;DHT22;10195;50.868;4.382;2022-11-15T06:35:25;10.70;99.90
20070;DHT22;10195;50.868;4.382;2022-11-15T06:37:51;10.80;99.90
20070;DHT22;10195;50.868;4.382;2022-11-15T06:40:17;10.80;99.90
20070;DHT22;10195;50.868;4.382;2022-11-15T06:42:43;10.80;99.90
20070;DHT22;10195;50.868;4.382;2022-11-15T06:45:09;10.80;99.90
20070;DHT22;10195;50.868;4.382;2022-11-15T06:47:34;10.80;99.90
20070;DHT22;10195;50.868;4.382;2022-11-15T06:50:00;10.80;99.90
20070;DHT22;10195;50.868;4.382;2022-11-15T06:52:28;10.70;99.90
20070;DHT22;10195;50.868;4.382;2022-11-15T06:54:57;10.60;99.90
20070;DHT22;10195;50.868;4.382;2022-11-15T06:57:23;10.60;99.90
20070;DHT22;10195;50.868;4.382;2022-11-15T06:59:49;10.50;99.90
20070;DHT22;10195;50.868;4.382;2022-11-15T07:02:14;10.50;99.90
20070;DHT22;10195;50.868;4.382;2022-11-15T07:04:40;10.50;99.90
20070;DHT22;10195;50.868;4.382;2022-11-15T07:07:05;10.50;99.90
20070;DHT22;10195;50.868;4.382;2022-11-15T07:09:31;10.40;99.90
20070;DHT22;10195;50.868;4.382;2022-11-15T07:11:57;10.50;99.90
20070;DHT22;10195;50.868;4.382;2022-11-15T07:14:23;10.50;99.90
20070;DHT22;10195;50.868;4.382;2022-11-15T07:16:48;10.50;99.90
20070;DHT22;10195;50.868;4.382;2022-11-15T07:19:14;10.60;99.90
20070;DHT22;10195;50.868;4.382;2022-11-15T07:21:39;10.60;99.90
20070;DHT22;10195;50.868;4.382;2022-11-15T07:24:05;10.50;99.90
20070;DHT22;10195;50.868;4.382;2022-11-15T07:26:31;10.60;99.90
20070;DHT22;10195;50.868;4.382;2022-11-15T07:28:56;10.60;99.90
20070;DHT22;10195;50.868;4.382;2022-11-15T07:31:22;10.60;99.90
20070;DHT22;10195;50.868;4.382;2022-11-15T07:33:48;10.50;99.90
20070;DHT22;10195;50.868;4.382;2022-11-15T07:36:13;10.60;99.90
20070;DHT22;10195;50.868;4.382;2022-11-15T07:38:39;10.60;99.90
20070;DHT22;10195;50.868;4.382;2022-11-15T07:41:06;10.60;99.90
20070;DHT22;10195;50.868;4.382;2022-11-15T07:43:32;10.70;99.90
20070;DHT22;10195;50.868;4.382;2022-11-15T07:46:08;10.60;99.90
20070;DHT22;10195;50.868;4.382;2022-11-15T07:48:38;10.70;99.90
20070;DHT22;10195;50.868;4.382;2022-11-15T07:51:09;10.60;99.90
20070;DHT22;10195;50.868;4.382;2022-11-15T07:53:35;10.60;99.90
20070;DHT22;10195;50.868;4.382;2022-11-15T07:56:01;10.60;99.90
20070;DHT22;10195;50.868;4.382;2022-11-15T07:58:26;10.70;99.90
20070;DHT22;10195;50.868;4.382;2022-11-15T08:00:52;10.70;99.90
20070;DHT22;10195;50.868;4.382;2022-11-15T08:03:17;10.70;99.90
20070;DHT22;10195;50.868;4.382;2022-11-15T08:05:50;10.70;99.90
20070;DHT22;10195;50.868;4.382;2022-11-15T08:08:16;10.70;99.90
20070;DHT22;10195;50.868;4.382;2022-11-15T08:10:42;10.70;99.90
20070;DHT22;10195;50.868;4.382;2022-11-15T08:13:10;10.60;99.90
20070;DHT22;10195;50.868;4.382;2022-11-15T08:15:36;10.70;99.90
20070;DHT22;10195;50.868;4.382;2022-11-15T08:18:09;10.70;99.90
20070;DHT22;10195;50.868;4.382;2022-11-15T08:20:35;10.80;99.90
20070;DHT22;10195;50.868;4.382;2022-11-15T08:23:02;10.90;99.90
20070;DHT22;10195;50.868;4.382;2022-11-15T08:25:29;11.00;99.90
20070;DHT22;10195;50.868;4.382;2022-11-15T08:27:58;11.10;99.90
20070;DHT22;10195;50.868;4.382;2022-11-15T08:30:24;11.10;99.90
20070;DHT22;10195;50.868;4.382;2022-11-15T08:32:51;11.10;99.90
20070;DHT22;10195;50.868;4.382;2022-11-15T08:35:18;11.10;99.90
20070;DHT22;10195;50.868;4.382;2022-11-15T08:37:43;11.20;99.90
20070;DHT22;10195;50.868;4.382;2022-11-15T08:40:09;11.20;99.90
20070;DHT22;10195;50.868;4.382;2022-11-15T08:42:35;11.20;99.90
20070;DHT22;10195;50.868;4.382;2022-11-15T08:45:01;11.30;99.90
20070;DHT22;10195;50.868;4.382;2022-11-15T08:47:27;11.20;99.90
20070;DHT22;10195;50.868;4.382;2022-11-15T08:49:53;11.40;99.90
20070;DHT22;10195;50.868;4.382;2022-11-15T08:52:18;11.60;99.90
20070;DHT22;10195;50.868;4.382;2022-11-15T08:54:44;11.80;99.90
20070;DHT22;10195;50.868;4.382;2022-11-15T08:57:10;11.70;99.90
20070;DHT22;10195;50.868;4.382;2022-11-15T08:59:37;11.90;99.90
20070;DHT22;10195;50.868;4.382;2022-11-15T09:02:02;12.30;99.90
20070;DHT22;10195;50.868;4.382;2022-11-15T09:04:28;12.60;99.90
20070;DHT22;10195;50.868;4.382;2022-11-15T09:06:54;12.90;99.90
20070;DHT22;10195;50.868;4.382;2022-11-15T09:09:20;13.70;99.90
20070;DHT22;10195;50.868;4.382;2022-11-15T09:11:46;14.00;99.90
20070;DHT22;10195;50.868;4.382;2022-11-15T09:14:12;13.80;99.90
20070;DHT22;10195;50.868;4.382;2022-11-15T09:16:38;14.20;99.90
20070;DHT22;10195;50.868;4.382;2022-11-15T09:19:04;14.00;99.90
20070;DHT22;10195;50.868;4.382;2022-11-15T09:21:30;13.50;99.90
20070;DHT22;10195;50.868;4.382;2022-11-15T09:23:56;13.00;99.90
20070;DHT22;10195;50.868;4.382;2022-11-15T09:26:22;13.30;99.90
20070;DHT22;10195;50.868;4.382;2022-11-15T09:28:47;13.80;99.90
20070;DHT22;10195;50.868;4.382;2022-11-15T09:31:13;13.90;99.90
20070;DHT22;10195;50.868;4.382;2022-11-15T09:33:39;13.60;99.90
20070;DHT22;10195;50.868;4.382;2022-11-15T09:36:09;13.30;99.90
20070;DHT22;10195;50.868;4.382;2022-11-15T09:38:35;13.40;99.90
20070;DHT22;10195;50.868;4.382;2022-11-15T09:49:29;13.90;99.90
20070;DHT22;10195;50.868;4.382;2022-11-15T09:51:55;14.00;99.90
20070;DHT22;10195;50.868;4.382;2022-11-15T09:54:38;14.10;99.90
20070;DHT22;10195;50.868;4.382;2022-11-15T09:57:10;14.10;99.90
20070;DHT22;10195;50.868;4.382;2022-11-15T10:03:06;13.90;99.90
20070;DHT22;10195;50.868;4.382;2022-11-15T10:05:38;13.90;99.90
20070;DHT22;10195;50.868;4.382;2022-11-15T10:08:25;13.60;99.90
20070;DHT22;10195;50.868;4.382;2022-11-15T10:10:58;13.50;99.90
20070;DHT22;10195;50.868;4.382;2022-11-15T10:13:33;13.60;99.90
20070;DHT22;10195;50.868;4.382;2022-11-15T10:18:58;13.30;99.90
20070;DHT22;10195;50.868;4.382;2022-11-15T10:24:23;13.60;99.90
20070;DHT22;10195;50.868;4.382;2022-11-15T10:26:49;13.40;99.90
20070;DHT22;10195;50.868;4.382;2022-11-15T10:29:23;13.40;99.90
20070;DHT22;10195;50.868;4.382;2022-11-15T10:31:49;13.40;99.90
20070;DHT22;10195;50.868;4.382;2022-11-15T10:34:17;13.50;99.90
20070;DHT22;10195;50.868;4.382;2022-11-15T10:36:54;13.80;99.90
20070;DHT22;10195;50.868;4.382;2022-11-15T10:39:20;13.80;99.90
20070;DHT22;10195;50.868;4.382;2022-11-15T10:41:46;14.00;99.90
20070;DHT22;10195;50.868;4.382;2022-11-15T10:49:28;14.50;99.90
20070;DHT22;10195;50.868;4.382;2022-11-15T10:51:58;14.30;99.90
20070;DHT22;10195;50.868;4.382;2022-11-15T10:54:33;14.20;99.90
20070;DHT22;10195;50.868;4.382;2022-11-15T10:57:06;14.00;99.90
20070;DHT22;10195;50.868;4.382;2022-11-15T10:59:36;14.00;99.90
20070;DHT22;10195;50.868;4.382;2022-11-15T11:02:20;14.00;99.90
20070;DHT22;10195;50.868;4.382;2022-11-15T11:04:52;13.50;99.90
20070;DHT22;10195;50.868;4.382;2022-11-15T11:07:24;13.60;99.90
20070;DHT22;10195;50.868;4.382;2022-11-15T11:10:03;13.60;99.90
20070;DHT22;10195;50.868;4.382;2022-11-15T11:12:31;13.70;99.90
20070;DHT22;10195;50.868;4.382;2022-11-15T11:15:01;13.70;99.90
20070;DHT22;10195;50.868;4.382;2022-11-15T11:20:18;13.40;99.90
20070;DHT22;10195;50.868;4.382;2022-11-15T11:32:03;13.80;99.90
20070;DHT22;10195;50.868;4.382;2022-11-15T11:43:03;14.30;99.90
20070;DHT22;10195;50.868;4.382;2022-11-15T11:48:34;14.10;99.90
20070;DHT22;10195;50.868;4.382;2022-11-15T11:51:32;14.20;99.90
20070;DHT22;10195;50.868;4.382;2022-11-15T11:54:01;14.20;99.90
20070;DHT22;10195;50.868;4.382;2022-11-15T11:56:32;14.30;99.90
20070;DHT22;10195;50.868;4.382;2022-11-15T12:01:57;14.00;99.90
20070;DHT22;10195;50.868;4.382;2022-11-15T12:04:35;13.90;99.90
20070;DHT22;10195;50.868;4.382;2022-11-15T12:07:29;13.80;99.90
20070;DHT22;10195;50.868;4.382;2022-11-15T12:09:55;13.90;99.90
20070;DHT22;10195;50.868;4.382;2022-11-15T12:12:47;13.90;99.90
20070;DHT22;10195;50.868;4.382;2022-11-15T12:15:18;14.00;99.90
20070;DHT22;10195;50.868;4.382;2022-11-15T12:17:45;14.20;99.90
20070;DHT22;10195;50.868;4.382;2022-11-15T12:20:25;14.20;99.90
20070;DHT22;10195;50.868;4.382;2022-11-15T12:25:50;14.20;99.90
20070;DHT22;10195;50.868;4.382;2022-11-15T12:28:45;14.20;99.90
20070;DHT22;10195;50.868;4.382;2022-11-15T12:31:23;14.20;99.90
20070;DHT22;10195;50.868;4.382;2022-11-15T12:33:55;14.10;99.90
20070;DHT22;10195;50.868;4.382;2022-11-15T12:38:58;14.00;99.90
20070;DHT22;10195;50.868;4.382;2022-11-15T12:41:38;14.00;99.90
20070;DHT22;10195;50.868;4.382;2022-11-15T12:44:04;14.00;99.90
20070;DHT22;10195;50.868;4.382;2022-11-15T12:52:03;14.10;99.90
20070;DHT22;10195;50.868;4.382;2022-11-15T13:02:27;14.20;99.90
20070;DHT22;10195;50.868;4.382;2022-11-15T13:17:48;14.50;99.90
20070;DHT22;10195;50.868;4.382;2022-11-15T13:22:48;14.60;99.90
20070;DHT22;10195;50.868;4.382;2022-11-15T13:33:35;14.20;99.90
20070;DHT22;10195;50.868;4.382;2022-11-15T13:36:22;14.20;99.90
20070;DHT22;10195;50.868;4.382;2022-11-15T13:38:57;14.00;99.90
20070;DHT22;10195;50.868;4.382;2022-11-15T13:41:26;13.90;99.90
20070;DHT22;10195;50.868;4.382;2022-11-15T13:43:53;14.00;99.90
20070;DHT22;10195;50.868;4.382;2022-11-15T13:46:21;14.00;99.90
20070;DHT22;10195;50.868;4.382;2022-11-15T13:49:10;14.10;99.90
20070;DHT22;10195;50.868;4.382;2022-11-15T13:51:44;14.20;99.90
20070;DHT22;10195;50.868;4.382;2022-11-15T13:54:42;14.40;99.90
20070;DHT22;10195;50.868;4.382;2022-11-15T13:59:43;14.20;99.90
20070;DHT22;10195;50.868;4.382;2022-11-15T14:02:35;14.30;99.90
20070;DHT22;10195;50.868;4.382;2022-11-15T14:05:04;14.50;99.90
20070;DHT22;10195;50.868;4.382;2022-11-15T14:07:30;14.30;99.90
20070;DHT22;10195;50.868;4.382;2022-11-15T14:09:57;14.30;99.90
20070;DHT22;10195;50.868;4.382;2022-11-15T14:12:30;14.40;99.90
20070;DHT22;10195;50.868;4.382;2022-11-15T14:14:57;14.50;99.90
20070;DHT22;10195;50.868;4.382;2022-11-15T14:19:56;14.50;99.90
20070;DHT22;10195;50.868;4.382;2022-11-15T14:27:39;14.30;99.90
20070;DHT22;10195;50.868;4.382;2022-11-15T14:30:05;14.30;99.90
20070;DHT22;10195;50.868;4.382;2022-11-15T14:32:45;14.20;99.90
20070;DHT22;10195;50.868;4.382;2022-11-15T14:35:20;14.00;99.90
20070;DHT22;10195;50.868;4.382;2022-11-15T14:37:46;14.00;99.90
20070;DHT22;10195;50.868;4.382;2022-11-15T14:40:18;14.00;99.90
20070;DHT22;10195;50.868;4.382;2022-11-15T14:42:45;14.10;99.90
20070;DHT22;10195;50.868;4.382;2022-11-15T14:45:17;14.00;99.90
20070;DHT22;10195;50.868;4.382;2022-11-15T14:47:44;13.90;99.90
20070;DHT22;10195;50.868;4.382;2022-11-15T14:50:13;13.80;99.90
20070;DHT22;10195;50.868;4.382;2022-11-15T14:52:40;13.70;99.90
20070;DHT22;10195;50.868;4.382;2022-11-15T14:55:35;13.60;99.90
20070;DHT22;10195;50.868;4.382;2022-11-15T14:58:05;13.60;99.90
20070;DHT22;10195;50.868;4.382;2022-11-15T15:00:38;13.50;99.90
20070;DHT22;10195;50.868;4.382;2022-11-15T15:03:04;13.50;99.90
20070;DHT22;10195;50.868;4.382;2022-11-15T15:05:31;13.40;99.90
20070;DHT22;10195;50.868;4.382;2022-11-15T15:07:57;13.40;99.90
20070;DHT22;10195;50.868;4.382;2022-11-15T15:10:24;13.40;99.90
20070;DHT22;10195;50.868;4.382;2022-11-15T15:12:50;13.50;99.90
20070;DHT22;10195;50.868;4.382;2022-11-15T15:15:25;13.50;99.90
20070;DHT22;10195;50.868;4.382;2022-11-15T15:17:51;13.60;99.90
20070;DHT22;10195;50.868;4.382;2022-11-15T15:20:17;13.50;99.90
20070;DHT22;10195;50.868;4.382;2022-11-15T15:22:43;13.50;99.90
20070;DHT22;10195;50.868;4.382;2022-11-15T15:25:32;13.40;99.90
20070;DHT22;10195;50.868;4.382;2022-11-15T15:27:58;13.30;99.90
20070;DHT22;10195;50.868;4.382;2022-11-15T15:30:26;13.40;99.90
20070;DHT22;10195;50.868;4.382;2022-11-15T15:32:52;13.40;99.90
20070;DHT22;10195;50.868;4.382;2022-11-15T15:35:18;13.40;99.90
20070;DHT22;10195;50.868;4.382;2022-11-15T15:37:44;13.40;99.90
20070;DHT22;10195;50.868;4.382;2022-11-15T15:40:17;13.10;99.90
20070;DHT22;10195;50.868;4.382;2022-11-15T15:42:43;13.10;99.90
20070;DHT22;10195;50.868;4.382;2022-11-15T15:45:09;13.20;99.90
20070;DHT22;10195;50.868;4.382;2022-11-15T15:47:35;13.00;99.90
20070;DHT22;10195;50.868;4.382;2022-11-15T15:50:01;13.00;99.90
20070;DHT22;10195;50.868;4.382;2022-11-15T15:52:27;13.00;99.90
20070;DHT22;10195;50.868;4.382;2022-11-15T15:54:53;13.10;99.90
20070;DHT22;10195;50.868;4.382;2022-11-15T15:57:18;13.20;99.90
20070;DHT22;10195;50.868;4.382;2022-11-15T15:59:44;13.20;99.90
20070;DHT22;10195;50.868;4.382;2022-11-15T16:02:13;13.20;99.90
20070;DHT22;10195;50.868;4.382;2022-11-15T16:04:39;13.00;99.90
20070;DHT22;10195;50.868;4.382;2022-11-15T16:07:05;13.10;99.90
20070;DHT22;10195;50.868;4.382;2022-11-15T16:09:31;13.00;99.90
20070;DHT22;10195;50.868;4.382;2022-11-15T16:12:15;12.90;99.90
20070;DHT22;10195;50.868;4.382;2022-11-15T16:14:42;13.00;99.90
20070;DHT22;10195;50.868;4.382;2022-11-15T16:17:14;13.00;99.90
20070;DHT22;10195;50.868;4.382;2022-11-15T16:19:42;13.00;99.90
20070;DHT22;10195;50.868;4.382;2022-11-15T16:22:07;13.10;99.90
20070;DHT22;10195;50.868;4.382;2022-11-15T16:24:33;13.10;99.90
20070;DHT22;10195;50.868;4.382;2022-11-15T16:26:59;13.00;99.90
20070;DHT22;10195;50.868;4.382;2022-11-15T16:29:24;12.90;99.90
20070;DHT22;10195;50.868;4.382;2022-11-15T16:31:50;12.90;99.90
20070;DHT22;10195;50.868;4.382;2022-11-15T16:34:16;12.90;99.90
20070;DHT22;10195;50.868;4.382;2022-11-15T16:36:41;12.90;99.90
20070;DHT22;10195;50.868;4.382;2022-11-15T16:39:11;12.80;99.90
20070;DHT22;10195;50.868;4.382;2022-11-15T16:41:38;12.70;99.90
20070;DHT22;10195;50.868;4.382;2022-11-15T16:44:04;12.80;99.90
20070;DHT22;10195;50.868;4.382;2022-11-15T16:46:29;12.80;99.90
20070;DHT22;10195;50.868;4.382;2022-11-15T16:48:55;12.80;99.90
20070;DHT22;10195;50.868;4.382;2022-11-15T16:51:21;12.90;99.90
20070;DHT22;10195;50.868;4.382;2022-11-15T16:53:47;13.00;99.90
20070;DHT22;10195;50.868;4.382;2022-11-15T16:58:43;13.00;99.90
20070;DHT22;10195;50.868;4.382;2022-11-15T17:01:16;12.90;99.90
20070;DHT22;10195;50.868;4.382;2022-11-15T17:03:43;13.00;99.90
20070;DHT22;10195;50.868;4.382;2022-11-15T17:06:09;13.10;99.90
20070;DHT22;10195;50.868;4.382;2022-11-15T17:08:35;13.00;99.90
20070;DHT22;10195;50.868;4.382;2022-11-15T17:11:05;13.00;99.90
20070;DHT22;10195;50.868;4.382;2022-11-15T17:13:31;13.00;99.90
20070;DHT22;10195;50.868;4.382;2022-11-15T17:16:09;12.90;99.90
20070;DHT22;10195;50.868;4.382;2022-11-15T17:18:36;12.90;99.90
20070;DHT22;10195;50.868;4.382;2022-11-15T17:21:07;12.90;99.90
20070;DHT22;10195;50.868;4.382;2022-11-15T17:23:33;12.80;99.90
20070;DHT22;10195;50.868;4.382;2022-11-15T17:26:00;12.80;99.90
20070;DHT22;10195;50.868;4.382;2022-11-15T17:28:28;12.80;99.90
20070;DHT22;10195;50.868;4.382;2022-11-15T17:30:53;12.90;99.90
20070;DHT22;10195;50.868;4.382;2022-11-15T17:33:19;12.80;99.90
20070;DHT22;10195;50.868;4.382;2022-11-15T17:35:44;12.90;99.90
20070;DHT22;10195;50.868;4.382;2022-11-15T17:38:10;13.00;99.90
20070;DHT22;10195;50.868;4.382;2022-11-15T17:40:35;13.00;99.90
20070;DHT22;10195;50.868;4.382;2022-11-15T17:43:01;13.10;99.90
20070;DHT22;10195;50.868;4.382;2022-11-15T17:45:27;13.20;99.90
20070;DHT22;10195;50.868;4.382;2022-11-15T17:47:52;13.00;99.90
20070;DHT22;10195;50.868;4.382;2022-11-15T17:50:18;13.00;99.90
20070;DHT22;10195;50.868;4.382;2022-11-15T17:52:43;13.10;99.90
20070;DHT22;10195;50.868;4.382;2022-11-15T17:55:09;13.10;99.90
20070;DHT22;10195;50.868;4.382;2022-11-15T17:57:35;12.90;99.90